Time;durP1;ratioP1;P1;durP2;ratioP2;P2;SDS_P1;SDS_P2;PMS_P1;PMS_P2;Temp;Humidity;BMP_temperature;BMP_pressure;BME280_temperature;BME280_humidity;BME280_pressure;Samples;Min_cycle;Max_cycle;Signal;HPM_P1;HPM_P2
2021/12/09 00:01:07;;;;;;;19.70;13.45;;;4.70;99.90;;;;;;4994672;28;20025;-49
2021/12/09 00:03:36;;;;;;;23.65;14.02;;;4.70;99.90;;;;;;4994780;28;20022;-50
2021/12/09 00:06:04;;;;;;;23.77;14.40;;;4.70;99.90;;;;;;4994076;28;20018;-48
2021/12/09 00:08:30;;;;;;;19.15;13.75;;;4.70;99.90;;;;;;4994608;28;20484;-49
2021/12/09 00:10:59;;;;;;;23.13;13.48;;;4.70;99.90;;;;;;4994631;28;20041;-48
2021/12/09 00:13:27;;;;;;;26.80;14.48;;;4.80;99.90;;;;;;4993568;28;20026;-51
2021/12/09 00:15:52;;;;;;;19.20;13.48;;;4.90;99.90;;;;;;4994545;28;20431;-48
2021/12/09 00:18:18;;;;;;;18.58;14.05;;;4.90;99.90;;;;;;4994596;28;20034;-49
2021/12/09 00:20:44;;;;;;;22.27;14.20;;;4.90;99.90;;;;;;4994093;28;20030;-47
2021/12/09 00:23:10;;;;;;;24.77;13.60;;;4.90;99.90;;;;;;4993695;28;20547;-50
2021/12/09 00:25:36;;;;;;;24.50;13.63;;;4.90;99.90;;;;;;4993832;28;20022;-49
2021/12/09 00:28:02;;;;;;;23.05;14.30;;;4.80;99.90;;;;;;4994446;28;20019;-52
2021/12/09 00:30:31;;;;;;;22.30;13.75;;;4.80;99.90;;;;;;4994235;28;20038;-47
2021/12/09 00:32:58;;;;;;;21.15;13.30;;;4.80;99.90;;;;;;5009446;23;20050;-47
2021/12/09 00:35:30;;;;;;;22.42;15.32;;;4.80;99.90;;;;;;4992667;28;20026;-47
2021/12/09 00:38:01;;;;;;;21.45;14.13;;;4.60;99.90;;;;;;4992869;28;20042;-47
2021/12/09 00:40:27;;;;;;;19.00;13.32;;;4.70;99.90;;;;;;4992263;28;20029;-47
2021/12/09 00:42:53;;;;;;;17.20;13.57;;;4.70;99.90;;;;;;4992161;28;20069;-46
2021/12/09 00:45:20;;;;;;;20.17;12.70;;;4.60;99.90;;;;;;4991991;28;20508;-49
2021/12/09 00:47:46;;;;;;;19.23;13.18;;;4.50;99.90;;;;;;4992170;28;20033;-45
2021/12/09 00:50:12;;;;;;;21.77;13.05;;;4.50;99.90;;;;;;4991914;28;20033;-48
2021/12/09 00:52:38;;;;;;;18.10;13.48;;;4.40;99.90;;;;;;4998877;28;20023;-51
2021/12/09 00:55:05;;;;;;;20.13;13.32;;;4.30;99.90;;;;;;4999025;28;20041;-52
2021/12/09 00:57:31;;;;;;;18.90;13.23;;;4.30;99.90;;;;;;4999854;28;20042;-54
2021/12/09 00:59:58;;;;;;;20.40;13.55;;;4.30;99.90;;;;;;4997649;28;20520;-54
2021/12/09 01:02:24;;;;;;;24.42;16.17;;;4.20;99.90;;;;;;4998146;28;20109;-46
2021/12/09 01:04:50;;;;;;;23.25;14.20;;;4.30;99.90;;;;;;4993715;28;20054;-46
2021/12/09 01:07:16;;;;;;;23.70;16.55;;;4.30;99.90;;;;;;4993765;28;20023;-45
2021/12/09 01:09:41;;;;;;;24.00;15.23;;;4.30;99.90;;;;;;4993323;28;20018;-49
2021/12/09 01:12:07;;;;;;;26.33;16.17;;;4.30;99.90;;;;;;4993306;28;20110;-45
2021/12/09 01:14:37;;;;;;;25.70;16.10;;;4.40;99.90;;;;;;4993412;28;20038;-48
2021/12/09 01:17:05;;;;;;;21.92;14.82;;;4.40;99.90;;;;;;4993471;28;20019;-45
2021/12/09 01:19:30;;;;;;;22.65;13.88;;;4.50;99.90;;;;;;4993127;28;20034;-45
2021/12/09 01:21:56;;;;;;;23.95;15.27;;;4.40;99.90;;;;;;4993256;28;20420;-48
2021/12/09 01:24:21;;;;;;;25.67;15.32;;;4.50;99.90;;;;;;4993666;28;20058;-46
2021/12/09 01:26:49;;;;;;;27.67;16.30;;;4.40;99.90;;;;;;4993325;28;20026;-45
2021/12/09 01:29:19;;;;;;;24.23;15.48;;;4.50;99.90;;;;;;4993060;28;20029;-47
2021/12/09 01:31:58;;;;;;;24.90;14.52;;;4.50;99.90;;;;;;4993103;28;20512;-47
2021/12/09 01:34:24;;;;;;;20.48;13.80;;;4.50;99.90;;;;;;4992853;28;20023;-49
2021/12/09 01:36:50;;;;;;;23.67;13.85;;;4.40;99.90;;;;;;4992991;28;20034;-45
2021/12/09 01:39:17;;;;;;;24.95;13.55;;;4.30;99.90;;;;;;4992696;28;20018;-45
2021/12/09 01:41:43;;;;;;;19.38;12.73;;;4.40;99.90;;;;;;4992774;28;20117;-48
2021/12/09 01:44:09;;;;;;;21.23;12.90;;;4.40;99.90;;;;;;4991553;28;20058;-48
2021/12/09 01:46:34;;;;;;;23.92;13.57;;;4.30;99.90;;;;;;4992870;28;20026;-50
2021/12/09 01:49:00;;;;;;;23.23;13.20;;;4.40;99.90;;;;;;4992689;28;20029;-47
2021/12/09 01:51:26;;;;;;;20.65;12.15;;;4.20;99.90;;;;;;4992745;28;20105;-47
2021/12/09 01:53:52;;;;;;;24.05;12.82;;;4.30;99.90;;;;;;4992752;28;20073;-45
2021/12/09 01:56:21;;;;;;;21.55;13.80;;;4.20;99.90;;;;;;4992901;28;20022;-43
2021/12/09 01:59:00;;;;;;;23.98;14.35;;;4.30;99.90;;;;;;4992784;28;20026;-45
2021/12/09 02:01:27;;;;;;;19.33;12.70;;;4.20;99.90;;;;;;4992638;28;20050;-45
2021/12/09 02:03:53;;;;;;;19.38;12.43;;;4.20;99.90;;;;;;4992701;28;20045;-51
2021/12/09 02:06:20;;;;;;;18.88;11.77;;;4.20;99.90;;;;;;4992684;28;20472;-51
2021/12/09 02:08:46;;;;;;;17.35;11.43;;;4.20;99.90;;;;;;4992452;28;20027;-52
2021/12/09 02:11:12;;;;;;;19.08;11.50;;;4.20;99.90;;;;;;4992232;28;20022;-48
2021/12/09 02:13:37;;;;;;;15.45;10.70;;;4.20;99.90;;;;;;4992545;28;20481;-47
2021/12/09 02:16:03;;;;;;;16.02;11.10;;;4.30;99.90;;;;;;4992469;28;20030;-51
2021/12/09 02:18:29;;;;;;;20.05;10.82;;;4.20;99.90;;;;;;4992544;28;20027;-49
2021/12/09 02:21:05;;;;;;;17.15;10.18;;;4.20;99.90;;;;;;4992060;28;20085;-46
2021/12/09 02:23:32;;;;;;;16.13;9.95;;;4.10;99.90;;;;;;4992363;28;20026;-46
2021/12/09 02:25:57;;;;;;;18.13;9.77;;;4.20;99.90;;;;;;4992290;28;20026;-47
2021/12/09 02:28:24;;;;;;;17.88;9.82;;;4.30;99.90;;;;;;4992225;28;20543;-49
2021/12/09 02:30:50;;;;;;;18.02;10.88;;;4.30;99.90;;;;;;4991854;28;20519;-48
2021/12/09 02:33:15;;;;;;;15.48;10.30;;;4.30;99.90;;;;;;4990979;28;20038;-49
2021/12/09 02:35:41;;;;;;;22.02;11.05;;;4.20;99.90;;;;;;4992226;28;20030;-46
2021/12/09 02:38:09;;;;;;;17.45;10.43;;;4.00;99.90;;;;;;4992069;28;20030;-49
2021/12/09 02:40:36;;;;;;;13.00;9.55;;;3.90;99.90;;;;;;4991906;28;20022;-47
2021/12/09 02:43:05;;;;;;;16.48;10.55;;;3.80;99.90;;;;;;4992052;28;20022;-47
2021/12/09 02:45:30;;;;;;;17.13;9.43;;;3.70;99.90;;;;;;4992240;28;20038;-47
2021/12/09 02:47:56;;;;;;;14.63;8.52;;;3.60;99.90;;;;;;4994628;28;20368;-48
2021/12/09 02:50:21;;;;;;;14.98;8.85;;;3.50;99.90;;;;;;4995763;28;20022;-44
2021/12/09 02:52:48;;;;;;;12.73;9.23;;;3.50;99.90;;;;;;4996170;28;20018;-50
2021/12/09 02:55:13;;;;;;;11.95;8.35;;;3.40;99.90;;;;;;4996104;28;20023;-47
2021/12/09 02:57:39;;;;;;;20.80;9.52;;;3.40;99.90;;;;;;4994711;28;20037;-47
2021/12/09 03:00:07;;;;;;;15.18;8.88;;;3.40;99.90;;;;;;4995669;28;20029;-46
2021/12/09 03:02:33;;;;;;;13.40;8.20;;;3.30;99.90;;;;;;4995755;28;20045;-46
2021/12/09 03:04:59;;;;;;;11.50;8.52;;;3.30;99.90;;;;;;4995168;28;20026;-47
2021/12/09 03:07:32;;;;;;;18.70;9.77;;;3.20;99.90;;;;;;4995840;28;20033;-47
2021/12/09 03:10:01;;;;;;;12.50;8.10;;;3.30;99.90;;;;;;4995456;28;20018;-47
2021/12/09 03:12:32;;;;;;;12.18;8.52;;;3.20;99.90;;;;;;4995597;28;20022;-48
2021/12/09 03:14:59;;;;;;;13.32;7.80;;;3.20;99.90;;;;;;4995728;28;20042;-50
2021/12/09 03:17:25;;;;;;;16.60;7.72;;;3.10;99.90;;;;;;4994363;28;20023;-49
2021/12/09 03:19:53;;;;;;;15.18;7.32;;;3.10;99.90;;;;;;4995409;28;20081;-49
2021/12/09 03:22:19;;;;;;;17.90;8.32;;;3.10;99.90;;;;;;4995833;28;20014;-45
2021/12/09 03:24:45;;;;;;;18.80;8.55;;;3.00;99.90;;;;;;4995551;28;20096;-47
2021/12/09 03:27:11;;;;;;;13.82;6.75;;;3.00;99.90;;;;;;4995308;28;20093;-47
2021/12/09 03:29:36;;;;;;;12.65;6.55;;;3.00;99.90;;;;;;4995023;28;20027;-47
2021/12/09 03:32:14;;;;;;;16.50;7.35;;;2.90;99.90;;;;;;4995230;28;20034;-45
2021/12/09 03:34:41;;;;;;;16.15;7.60;;;3.00;99.90;;;;;;4995348;28;20076;-49
2021/12/09 03:37:13;;;;;;;11.50;6.68;;;3.00;99.90;;;;;;4995149;28;20026;-47
2021/12/09 03:39:42;;;;;;;15.88;8.50;;;3.00;99.90;;;;;;4994983;28;20023;-46
2021/12/09 03:42:11;;;;;;;12.82;8.70;;;3.00;99.90;;;;;;4994994;28;20396;-45
2021/12/09 03:44:37;;;;;;;23.02;9.90;;;3.00;99.90;;;;;;4993661;28;20117;-47
2021/12/09 03:47:06;;;;;;;16.65;8.60;;;3.10;99.90;;;;;;4995303;28;20355;-45
2021/12/09 03:49:31;;;;;;;11.98;8.43;;;3.10;99.90;;;;;;4995027;28;20021;-45
2021/12/09 03:51:57;;;;;;;14.88;8.27;;;3.00;99.90;;;;;;4995021;28;20026;-46
2021/12/09 03:54:24;;;;;;;18.67;7.93;;;3.00;99.90;;;;;;4994934;28;20476;-45
2021/12/09 03:56:50;;;;;;;11.35;8.40;;;3.00;99.90;;;;;;4995129;28;20033;-45
2021/12/09 03:59:16;;;;;;;9.80;7.55;;;3.00;99.90;;;;;;4994613;28;20030;-49
2021/12/09 04:01:43;;;;;;;20.30;8.68;;;3.00;99.90;;;;;;4994830;28;20502;-46
2021/12/09 04:04:09;;;;;;;12.40;7.30;;;3.00;99.90;;;;;;4994867;28;20030;-51
2021/12/09 04:06:35;;;;;;;9.93;6.60;;;3.10;99.90;;;;;;4992950;28;20496;-49
2021/12/09 04:09:05;;;;;;;21.45;7.70;;;3.10;99.90;;;;;;4994415;28;20106;-46
2021/12/09 04:11:30;;;;;;;12.75;6.97;;;3.10;99.90;;;;;;4994277;28;20027;-49
2021/12/09 04:13:56;;;;;;;11.13;7.20;;;3.10;99.90;;;;;;4994763;28;20034;-46
2021/12/09 04:16:21;;;;;;;15.98;7.13;;;3.10;99.90;;;;;;4994509;28;20109;-49
2021/12/09 04:18:47;;;;;;;10.98;7.07;;;3.20;99.90;;;;;;4994411;28;20552;-46
2021/12/09 04:21:14;;;;;;;14.77;7.43;;;3.20;99.90;;;;;;4994264;28;20510;-42
2021/12/09 04:23:40;;;;;;;11.70;7.35;;;3.20;99.90;;;;;;4994337;28;20022;-49
2021/12/09 04:26:06;;;;;;;12.07;7.18;;;3.30;99.90;;;;;;4994390;28;20030;-48
2021/12/09 04:28:33;;;;;;;11.00;7.32;;;3.60;99.90;;;;;;4994446;28;20062;-48
2021/12/09 04:30:59;;;;;;;17.63;8.43;;;3.50;99.90;;;;;;4994100;28;20023;-46
2021/12/09 04:33:25;;;;;;;16.05;7.65;;;3.50;99.90;;;;;;4992896;28;20149;-44
2021/12/09 04:35:50;;;;;;;10.30;7.55;;;3.50;99.90;;;;;;4992927;28;20488;-48
2021/12/09 04:38:16;;;;;;;15.57;7.82;;;3.50;99.90;;;;;;4992904;28;20041;-50
2021/12/09 04:40:42;;;;;;;13.88;8.68;;;3.60;99.90;;;;;;4992711;28;20030;-50
2021/12/09 04:43:07;;;;;;;13.30;7.03;;;3.50;99.90;;;;;;4992946;28;20038;-45
2021/12/09 04:45:34;;;;;;;13.60;7.57;;;3.60;99.90;;;;;;4992851;28;20031;-50
2021/12/09 04:47:59;;;;;;;16.23;8.25;;;3.60;99.90;;;;;;4992893;28;20101;-45
2021/12/09 04:50:26;;;;;;;12.90;7.10;;;3.60;99.90;;;;;;4992758;28;20050;-50
2021/12/09 04:52:51;;;;;;;13.40;7.15;;;3.70;99.90;;;;;;4991483;28;20030;-51
2021/12/09 04:55:17;;;;;;;10.13;6.90;;;3.60;99.90;;;;;;4992817;28;20034;-49
2021/12/09 04:57:43;;;;;;;12.48;7.43;;;3.60;99.90;;;;;;4992854;28;20033;-48
2021/12/09 05:00:13;;;;;;;17.60;6.85;;;3.60;99.90;;;;;;4992458;28;20035;-45
2021/12/09 05:05:07;;;;;;;10.48;6.00;;;3.70;99.90;;;;;;4992236;28;20022;-47
2021/12/09 05:07:32;;;;;;;14.88;6.32;;;3.70;99.90;;;;;;4992825;28;20049;-47
2021/12/09 05:09:58;;;;;;;15.00;6.50;;;3.70;99.90;;;;;;4991490;28;20102;-44
2021/12/09 05:12:24;;;;;;;10.77;6.57;;;3.70;99.90;;;;;;4991297;28;20026;-46
2021/12/09 05:14:49;;;;;;;12.13;6.70;;;3.60;99.90;;;;;;4992598;28;20534;-51
2021/12/09 05:17:17;;;;;;;14.55;5.70;;;3.70;99.90;;;;;;4992779;28;20030;-48
2021/12/09 05:19:43;;;;;;;11.82;5.85;;;3.50;99.90;;;;;;4992285;28;20030;-46
2021/12/09 05:22:09;;;;;;;16.85;6.53;;;3.50;99.90;;;;;;4992246;28;20104;-47
2021/12/09 05:24:37;;;;;;;15.32;6.15;;;3.50;99.90;;;;;;4992414;28;20054;-47
2021/12/09 05:27:04;;;;;;;11.93;6.22;;;3.60;99.90;;;;;;4992270;28;20492;-47
2021/12/09 05:29:36;;;;;;;10.18;5.80;;;3.60;99.90;;;;;;4992022;28;20030;-46
2021/12/09 05:32:10;;;;;;;15.25;5.72;;;3.50;99.90;;;;;;4955752;28;1037253;-45
2021/12/09 05:34:41;;;;;;;14.65;7.05;;;3.50;99.90;;;;;;4993370;28;20022;-49
2021/12/09 05:37:09;;;;;;;14.75;6.32;;;3.60;99.90;;;;;;4993226;28;20045;-51
2021/12/09 05:39:36;;;;;;;13.80;6.20;;;3.60;99.90;;;;;;4992792;28;20534;-44
2021/12/09 05:42:04;;;;;;;14.88;6.15;;;3.50;99.90;;;;;;4991632;28;20041;-50
2021/12/09 05:44:29;;;;;;;20.55;6.85;;;3.60;99.90;;;;;;4992959;28;20105;-45
2021/12/09 05:46:55;;;;;;;13.55;7.60;;;3.50;99.90;;;;;;4992936;28;20413;-47
2021/12/09 05:49:21;;;;;;;10.50;6.75;;;3.40;99.90;;;;;;4992396;28;20026;-46
2021/12/09 05:51:47;;;;;;;16.25;6.90;;;3.40;99.90;;;;;;4992697;28;20031;-46
2021/12/09 05:54:13;;;;;;;13.63;6.15;;;3.40;99.90;;;;;;4992843;28;20077;-45
2021/12/09 05:56:39;;;;;;;14.80;6.53;;;3.40;99.90;;;;;;4991330;28;20436;-48
2021/12/09 05:59:07;;;;;;;13.10;7.10;;;3.40;99.90;;;;;;4993324;28;20030;-47
2021/12/09 06:01:33;;;;;;;12.15;6.25;;;3.40;99.90;;;;;;4992502;28;20023;-46
2021/12/09 06:03:59;;;;;;;25.70;7.72;;;3.40;99.90;;;;;;4992626;28;20054;-47
2021/12/09 06:06:25;;;;;;;13.50;6.57;;;3.40;99.90;;;;;;4992218;28;20030;-46
2021/12/09 06:08:50;;;;;;;15.25;7.18;;;3.40;99.90;;;;;;4992482;28;20030;-48
2021/12/09 06:11:17;;;;;;;15.70;6.80;;;3.30;99.90;;;;;;4992092;28;20033;-47
2021/12/09 06:13:44;;;;;;;14.05;6.82;;;3.20;99.90;;;;;;4992694;28;20526;-46
2021/12/09 06:16:10;;;;;;;14.82;7.22;;;3.20;99.90;;;;;;4992385;28;20488;-47
2021/12/09 06:18:36;;;;;;;17.23;7.88;;;3.10;99.90;;;;;;4992394;28;20034;-51
2021/12/09 06:21:03;;;;;;;18.75;8.80;;;2.90;99.90;;;;;;4991943;28;20542;-48
2021/12/09 06:23:28;;;;;;;10.68;7.22;;;2.90;99.90;;;;;;4992389;28;20038;-49
2021/12/09 06:25:54;;;;;;;16.10;8.45;;;2.80;99.90;;;;;;4992307;28;20042;-46
2021/12/09 06:28:20;;;;;;;19.02;8.90;;;2.70;99.90;;;;;;4992319;28;20105;-45
2021/12/09 06:30:46;;;;;;;18.17;8.45;;;2.80;99.90;;;;;;4992127;28;20097;-49
2021/12/09 06:33:12;;;;;;;21.33;8.68;;;2.70;99.90;;;;;;5015417;23;20050;-49
2021/12/09 06:35:38;;;;;;;16.27;7.95;;;2.90;99.90;;;;;;4992067;28;20147;-49
2021/12/09 06:38:05;;;;;;;15.98;9.05;;;2.90;99.90;;;;;;4991998;28;20388;-48
2021/12/09 06:40:31;;;;;;;12.57;8.23;;;3.00;99.90;;;;;;4991826;28;20023;-47
2021/12/09 06:42:57;;;;;;;21.75;9.07;;;3.00;99.90;;;;;;4990878;28;20422;-55
2021/12/09 06:45:23;;;;;;;16.08;8.40;;;3.10;99.90;;;;;;4991965;28;20030;-46
2021/12/09 06:47:50;;;;;;;16.52;9.25;;;3.10;99.90;;;;;;4992056;28;20022;-51
2021/12/09 06:50:17;;;;;;;17.25;8.18;;;3.20;99.90;;;;;;4991845;28;20026;-50
2021/12/09 06:52:43;;;;;;;11.80;7.35;;;3.20;99.90;;;;;;4991806;28;20023;-47
2021/12/09 06:55:11;;;;;;;14.95;8.65;;;3.30;99.90;;;;;;4992174;28;20503;-48
2021/12/09 06:57:38;;;;;;;19.20;8.52;;;3.30;99.90;;;;;;4992285;28;20105;-48
2021/12/09 07:00:09;;;;;;;24.60;9.73;;;3.30;99.90;;;;;;4991604;28;20365;-51
2021/12/09 07:02:35;;;;;;;20.60;8.35;;;3.30;99.90;;;;;;4992175;28;20026;-50
2021/12/09 07:05:01;;;;;;;15.82;8.15;;;3.30;99.90;;;;;;4991466;28;20023;-48
2021/12/09 07:07:27;;;;;;;20.70;8.90;;;3.30;99.90;;;;;;4992001;28;20023;-47
2021/12/09 07:09:53;;;;;;;18.98;8.93;;;3.30;99.90;;;;;;4991831;28;20037;-50
2021/12/09 07:12:18;;;;;;;19.48;8.43;;;3.30;99.90;;;;;;4991819;28;20489;-47
2021/12/09 07:14:44;;;;;;;16.05;8.75;;;3.30;99.90;;;;;;4991838;28;20101;-48
2021/12/09 07:17:11;;;;;;;15.85;8.10;;;3.40;99.90;;;;;;4991909;28;20077;-51
2021/12/09 07:19:37;;;;;;;19.13;9.75;;;3.40;99.90;;;;;;4991422;28;20511;-52
2021/12/09 07:22:04;;;;;;;18.30;9.38;;;3.30;99.90;;;;;;4991691;28;20023;-47
2021/12/09 07:24:30;;;;;;;17.67;9.98;;;3.30;99.90;;;;;;4991906;28;20498;-50
2021/12/09 07:26:57;;;;;;;21.88;10.02;;;3.20;99.90;;;;;;4991728;28;20038;-49
2021/12/09 07:29:23;;;;;;;23.38;10.25;;;3.10;99.90;;;;;;4991881;28;20023;-47
2021/12/09 07:31:49;;;;;;;19.33;11.40;;;3.10;99.90;;;;;;4990814;28;20027;-49
2021/12/09 07:34:15;;;;;;;21.33;11.38;;;3.20;99.90;;;;;;4993005;28;20065;-51
2021/12/09 07:36:40;;;;;;;26.05;12.35;;;3.20;99.90;;;;;;4995467;28;20029;-51
2021/12/09 07:39:06;;;;;;;21.60;11.68;;;3.10;99.90;;;;;;4993733;28;20472;-51
2021/12/09 07:41:31;;;;;;;27.45;12.55;;;3.10;99.90;;;;;;4992494;28;20034;-50
2021/12/09 07:43:57;;;;;;;21.65;11.50;;;3.00;99.90;;;;;;5002367;28;20030;-48
2021/12/09 07:46:23;;;;;;;24.30;11.27;;;3.00;99.90;;;;;;4990482;28;20429;-49
2021/12/09 07:48:48;;;;;;;21.20;12.50;;;3.00;99.90;;;;;;4975519;28;20102;-51
2021/12/09 07:51:14;;;;;;;21.70;12.25;;;3.00;99.90;;;;;;4989683;28;20134;-49
2021/12/09 07:53:39;;;;;;;32.42;11.43;;;3.00;99.90;;;;;;4991541;28;20439;-47
2021/12/09 07:56:05;;;;;;;21.20;12.00;;;3.00;99.90;;;;;;4993161;28;20049;-52
2021/12/09 07:58:32;;;;;;;19.38;11.63;;;3.00;99.90;;;;;;4994182;28;20424;-50
2021/12/09 08:00:58;;;;;;;16.10;12.88;;;3.10;99.90;;;;;;4994486;28;20049;-52
2021/12/09 08:03:24;;;;;;;27.83;13.32;;;3.00;99.90;;;;;;4994698;28;20030;-48
2021/12/09 08:05:49;;;;;;;22.17;11.77;;;3.00;99.90;;;;;;4984456;28;20026;-49
2021/12/09 08:08:15;;;;;;;19.77;11.70;;;3.00;99.90;;;;;;4992916;28;20173;-48
2021/12/09 08:10:41;;;;;;;26.95;12.45;;;3.00;99.90;;;;;;4992705;28;20026;-49
2021/12/09 08:13:08;;;;;;;22.85;12.05;;;3.00;99.90;;;;;;4992778;28;20032;-48
2021/12/09 08:15:38;;;;;;;19.45;12.05;;;3.00;99.90;;;;;;4994425;28;20026;-53
2021/12/09 08:20:52;;;;;;;23.27;10.88;;;3.00;99.90;;;;;;4994278;28;20027;-48
2021/12/09 08:23:18;;;;;;;23.40;11.13;;;2.90;99.90;;;;;;4994338;28;20072;-46
2021/12/09 08:25:46;;;;;;;23.65;12.00;;;2.90;99.90;;;;;;4994414;28;20476;-48
2021/12/09 08:28:11;;;;;;;21.30;10.50;;;2.90;99.90;;;;;;4993898;28;20025;-52
2021/12/09 08:30:38;;;;;;;17.80;11.20;;;2.90;99.90;;;;;;4993992;28;20026;-52
2021/12/09 08:33:07;;;;;;;15.90;9.30;;;3.10;99.90;;;;;;4994064;28;20030;-52
2021/12/09 08:35:35;;;;;;;15.25;9.20;;;3.20;99.90;;;;;;4993967;28;20034;-50
2021/12/09 08:38:07;;;;;;;18.02;9.07;;;3.30;99.90;;;;;;4992828;28;20440;-51
2021/12/09 08:40:33;;;;;;;16.73;10.52;;;3.40;99.90;;;;;;4994057;28;20030;-51
2021/12/09 08:42:58;;;;;;;15.95;8.73;;;3.40;99.90;;;;;;4994044;28;20039;-54
2021/12/09 08:45:24;;;;;;;16.17;8.23;;;3.40;99.90;;;;;;4992903;28;20415;-53
2021/12/09 08:47:50;;;;;;;13.68;7.65;;;3.40;99.90;;;;;;4993771;28;20540;-51
2021/12/09 08:50:19;;;;;;;23.70;8.77;;;3.40;99.90;;;;;;4993768;28;20081;-50
2021/12/09 08:52:46;;;;;;;15.98;8.10;;;3.30;99.90;;;;;;4994058;28;20476;-52
2021/12/09 08:55:12;;;;;;;19.25;7.82;;;3.40;99.90;;;;;;4993914;28;20026;-51
2021/12/09 08:57:37;;;;;;;14.68;8.00;;;3.50;99.90;;;;;;4993892;28;20026;-52
2021/12/09 09:00:09;;;;;;;17.15;7.40;;;3.50;99.90;;;;;;4993727;28;20026;-55
2021/12/09 09:02:36;;;;;;;12.95;8.15;;;3.50;99.90;;;;;;4993650;28;20026;-53
2021/12/09 09:05:03;;;;;;;12.90;8.13;;;3.60;99.90;;;;;;4993628;28;20018;-52
2021/12/09 09:07:28;;;;;;;14.35;8.07;;;3.70;99.90;;;;;;4992889;28;20041;-54
2021/12/09 09:09:54;;;;;;;19.80;7.78;;;3.70;99.90;;;;;;4992234;28;20022;-50
2021/12/09 09:12:19;;;;;;;12.25;8.00;;;3.80;99.90;;;;;;4994066;28;20123;-53
2021/12/09 09:14:45;;;;;;;15.35;7.47;;;3.90;99.90;;;;;;4993660;28;20024;-51
2021/12/09 09:17:11;;;;;;;9.98;7.15;;;3.80;99.90;;;;;;4992300;28;20110;-50
2021/12/09 09:19:37;;;;;;;12.85;7.57;;;3.80;99.90;;;;;;4992009;28;20129;-49
2021/12/09 09:22:05;;;;;;;11.07;7.22;;;3.80;99.90;;;;;;4992076;28;20061;-53
2021/12/09 09:24:30;;;;;;;13.68;7.75;;;3.90;99.90;;;;;;4992191;28;20113;-53
2021/12/09 09:26:57;;;;;;;12.75;8.07;;;3.90;99.90;;;;;;4993392;28;20113;-52
2021/12/09 09:29:24;;;;;;;17.33;8.27;;;3.90;99.90;;;;;;4992706;28;20037;-49
2021/12/09 09:31:51;;;;;;;12.93;7.32;;;4.00;99.90;;;;;;4992822;28;20451;-53
2021/12/09 09:34:16;;;;;;;17.55;7.85;;;4.10;99.90;;;;;;4992007;28;20026;-52
2021/12/09 09:36:44;;;;;;;15.40;7.30;;;4.20;99.90;;;;;;4993542;28;20547;-54
2021/12/09 09:39:18;;;;;;;17.83;7.72;;;4.20;99.90;;;;;;4993037;28;20118;-54
2021/12/09 09:41:55;;;;;;;16.08;7.22;;;4.20;99.90;;;;;;4992083;28;20038;-51
2021/12/09 09:44:28;;;;;;;13.55;7.28;;;4.20;99.90;;;;;;4993558;28;20515;-51
2021/12/09 09:47:03;;;;;;;10.98;7.00;;;4.20;99.90;;;;;;4993199;28;20031;-53
2021/12/09 09:49:30;;;;;;;23.33;8.30;;;4.30;99.90;;;;;;4992791;28;20058;-53
2021/12/09 09:51:57;;;;;;;14.88;7.13;;;4.20;99.90;;;;;;4991800;28;20046;-52
2021/12/09 09:54:25;;;;;;;15.57;7.45;;;4.20;99.90;;;;;;4991607;28;20034;-52
2021/12/09 09:56:50;;;;;;;19.48;7.20;;;4.20;99.90;;;;;;4991362;28;20030;-52
2021/12/09 09:59:17;;;;;;;16.85;6.88;;;4.10;99.90;;;;;;4992624;28;20037;-52
2021/12/09 10:01:45;;;;;;;13.82;7.00;;;4.10;99.90;;;;;;4992857;28;20030;-51
2021/12/09 10:04:14;;;;;;;16.92;8.05;;;4.00;99.90;;;;;;4991163;28;20540;-50
2021/12/09 10:06:42;;;;;;;13.45;6.95;;;4.10;99.90;;;;;;4992558;28;20030;-50
2021/12/09 10:09:09;;;;;;;14.18;7.93;;;4.00;99.90;;;;;;4992345;28;20022;-50
2021/12/09 10:11:37;;;;;;;16.92;8.40;;;4.00;99.90;;;;;;4992538;28;20115;-51
2021/12/09 10:14:16;;;;;;;17.08;7.97;;;4.00;99.90;;;;;;4992523;28;20026;-54
2021/12/09 10:16:45;;;;;;;14.60;7.22;;;4.00;99.90;;;;;;4992497;28;20026;-50
2021/12/09 10:19:20;;;;;;;12.27;7.57;;;4.00;99.90;;;;;;4992310;28;20045;-51
2021/12/09 10:21:47;;;;;;;9.32;6.72;;;4.10;99.90;;;;;;4992541;28;20440;-49
2021/12/09 10:24:13;;;;;;;18.13;7.03;;;4.20;99.90;;;;;;4992674;28;20162;-52
2021/12/09 10:26:47;;;;;;;19.92;8.88;;;4.10;99.90;;;;;;4992179;28;20459;-53
2021/12/09 10:29:20;;;;;;;18.67;7.18;;;4.20;99.90;;;;;;4991579;28;20033;-50
2021/12/09 10:31:56;;;;;;;12.30;6.72;;;4.30;99.90;;;;;;4991956;28;20125;-49
2021/12/09 10:34:35;;;;;;;14.27;6.82;;;4.30;99.90;;;;;;4991524;28;20125;-47
2021/12/09 10:37:20;;;;;;;18.77;7.85;;;4.20;99.90;;;;;;4991919;28;20034;-51
2021/12/09 10:40:03;;;;;;;13.43;7.32;;;4.30;99.90;;;;;;4992330;28;20023;-49
2021/12/09 10:42:34;;;;;;;14.00;7.10;;;4.30;99.90;;;;;;4991993;28;20563;-50
2021/12/09 10:45:07;;;;;;;13.73;7.07;;;4.40;99.90;;;;;;4992417;28;20403;-52
2021/12/09 10:47:55;;;;;;;9.27;6.22;;;4.40;99.90;;;;;;4986842;28;20035;-51
2021/12/09 10:50:38;;;;;;;13.77;6.10;;;4.40;99.90;;;;;;4991674;28;20033;-52
2021/12/09 10:55:53;;;;;;;12.15;5.65;;;4.70;99.90;;;;;;4992279;28;20027;-49
2021/12/09 10:58:26;;;;;;;10.18;5.50;;;4.70;99.90;;;;;;4991891;28;20593;-51
2021/12/09 11:00:53;;;;;;;13.20;5.72;;;4.60;99.90;;;;;;4989841;28;20042;-49
2021/12/09 11:03:26;;;;;;;14.68;5.85;;;4.70;99.90;;;;;;4990580;28;20027;-52
2021/12/09 11:05:57;;;;;;;14.07;5.75;;;4.80;99.90;;;;;;4990346;28;20030;-50
2021/12/09 11:08:33;;;;;;;12.98;5.90;;;4.80;99.90;;;;;;4993441;28;20026;-52
2021/12/09 11:11:06;;;;;;;14.38;7.38;;;5.00;99.90;;;;;;4994507;28;20515;-52
2021/12/09 11:13:52;;;;;;;12.43;5.93;;;5.00;99.90;;;;;;4994487;28;20022;-53
2021/12/09 11:16:28;;;;;;;9.93;6.05;;;4.90;99.90;;;;;;4996117;28;20089;-49
2021/12/09 11:19:05;;;;;;;11.45;5.55;;;5.00;99.90;;;;;;4991580;28;20026;-53
2021/12/09 11:21:35;;;;;;;12.00;6.03;;;4.90;99.90;;;;;;4993963;28;20026;-50
2021/12/09 11:24:18;;;;;;;10.77;5.78;;;4.90;99.90;;;;;;4995455;28;20494;-50
2021/12/09 11:29:42;;;;;;;12.87;7.03;;;4.90;99.90;;;;;;4976129;28;20030;-52
2021/12/09 11:34:56;;;;;;;13.85;5.85;;;5.00;99.90;;;;;;4995011;28;20066;-51
2021/12/09 11:40:46;;;;;;;13.13;7.22;;;5.00;99.90;;;;;;4995190;28;20048;-48
2021/12/09 11:43:20;;;;;;;11.80;6.07;;;5.00;99.90;;;;;;4995797;28;20042;-50
2021/12/09 11:45:47;;;;;;;11.25;5.82;;;4.90;99.90;;;;;;4994175;28;20026;-55
2021/12/09 11:48:15;;;;;;;10.82;5.35;;;4.90;99.90;;;;;;4993882;28;20034;-52
2021/12/09 11:50:44;;;;;;;12.35;4.97;;;4.90;99.90;;;;;;4994919;28;20046;-50
2021/12/09 11:53:13;;;;;;;11.75;4.65;;;4.80;99.90;;;;;;4993395;28;20503;-54
2021/12/09 11:55:44;;;;;;;18.67;6.00;;;4.80;99.90;;;;;;4994887;28;20045;-52
2021/12/09 11:58:20;;;;;;;19.73;6.30;;;4.80;99.90;;;;;;4994818;28;20030;-52
2021/12/09 12:12:45;;;;;;;12.45;6.30;;;4.90;99.90;;;;;;4976221;28;20027;-51
2021/12/09 12:18:15;;;;;;;14.93;5.70;;;4.90;99.90;;;;;;4996188;28;20026;-52
2021/12/09 12:23:49;;;;;;;10.35;5.53;;;4.90;99.90;;;;;;4975661;28;20082;-50
2021/12/09 12:32:41;;;;;;;16.85;6.22;;;5.00;99.90;;;;;;4983823;28;20018;-55
2021/12/09 12:40:38;;;;;;;14.88;6.68;;;5.00;99.90;;;;;;4974677;28;20031;-54
2021/12/09 12:43:09;;;;;;;19.48;6.93;;;5.10;99.90;;;;;;4992948;28;20423;-48
2021/12/09 12:45:49;;;;;;;16.75;6.30;;;5.20;99.90;;;;;;4994276;28;20396;-48
2021/12/09 12:51:33;;;;;;;17.25;7.80;;;5.30;99.90;;;;;;4994019;28;20027;-49
2021/12/09 12:54:32;;;;;;;12.68;6.88;;;5.40;99.90;;;;;;4993188;28;20065;-49
2021/12/09 12:57:01;;;;;;;18.85;7.35;;;5.30;99.90;;;;;;4993984;28;20026;-51
2021/12/09 12:59:37;;;;;;;19.25;6.65;;;5.40;99.90;;;;;;4993553;28;20705;-50
2021/12/09 13:05:00;;;;;;;9.02;5.97;;;5.40;99.90;;;;;;4994179;28;20089;-48
2021/12/09 13:08:46;;;;;;;11.43;6.75;;;5.40;99.90;;;;;;4994274;28;20085;-51
2021/12/09 13:11:05;;;;;;;10.65;6.65;;;5.50;99.90;;;;;;4992514;28;20065;-51
2021/12/09 13:13:31;;;;;;;12.13;6.07;;;5.50;99.90;;;;;;4993576;28;20399;-49
2021/12/09 13:19:03;;;;;;;15.88;7.13;;;5.40;99.90;;;;;;4993813;28;20038;-51
2021/12/09 13:21:54;;;;;;;15.68;7.30;;;5.40;99.90;;;;;;4993926;28;20018;-48
2021/12/09 13:27:28;;;;;;;14.25;7.22;;;5.20;99.90;;;;;;4993297;28;20030;-51
2021/12/09 13:35:25;;;;;;;13.52;7.63;;;5.20;99.90;;;;;;4993931;28;20080;-51
2021/12/09 13:46:20;;;;;;;14.18;6.05;;;5.20;99.90;;;;;;4993252;28;20057;-48
2021/12/09 13:49:06;;;;;;;13.25;7.30;;;5.20;99.90;;;;;;4992671;28;20037;-49
2021/12/09 13:54:26;;;;;;;12.00;7.10;;;5.30;99.90;;;;;;4992330;28;20421;-50
2021/12/09 13:57:01;;;;;;;14.68;6.68;;;5.30;99.90;;;;;;4974406;28;20522;-48
2021/12/09 13:59:29;;;;;;;13.50;6.97;;;5.30;99.90;;;;;;4980001;28;20404;-50
2021/12/09 14:01:57;;;;;;;17.73;7.13;;;5.40;99.90;;;;;;4988958;28;20054;-51
2021/12/09 14:04:31;;;;;;;11.00;6.60;;;5.40;99.90;;;;;;5003835;28;20036;-50